Cross Village, MI (49723)

3:24 AM EDT on March 26, 2017 (GMT -0400)
Sturgeon Bay Michigan Shore | | Change Station
Active Advisory: Winter Weather Advisory

Elev 571 ft 45.67 °N, 85.00 °W | Updated 32 seconds ago

Rain
Rain
32.2 °F
Feels Like 28 °F
N
4.0
Wind Variable Wind from South
Gusts 12.0 mph

Today
High -- | Low -- °F
--% Chance of Precip.
Yesterday
High -- | Low -- °F
Precip. -- in
Pressure 30.19 in
Visibility 9.0 miles
Clouds Mostly Cloudy 1000 ft
Overcast 3000 ft
Windchill 28 °F
Dew Point 32 °F
Humidity 98%
Rainfall 0.04 in
Snow Depth Not available.
7:31 AM 8:00 PM
Waning Crescent, 4% visible
METAR KPLN 260654Z AUTO 10014G21KT 9SM -FZRA BKN010 OVC030 00/M02 A3017 RMK AO2 UPE14FZRAB14 SLP224 P0001 I1002 T00001022
Pressure 30.19 in
Visibility 9.0 miles
Clouds Mostly Cloudy 1000 ft
Overcast 3000 ft
Windchill 28 °F
Dew Point 32 °F
Humidity 98%
Rainfall 0.04 in
Snow Depth Not available.
7:31 AM 8:00 PM
Waning Crescent, 4% visible
METAR KPLN 260654Z AUTO 10014G21KT 9SM -FZRA BKN010 OVC030 00/M02 A3017 RMK AO2 UPE14FZRAB14 SLP224 P0001 I1002 T00001022

Get Your Daily Forecast Email!

Thanks for signing up!

Be on the lookout for a verification email in your inbox.

You'll start receiving severe weather alerts in your inbox..

×

10-Day Weather Forecast

Almanac

Astronomy

Mar. 26, 2017 Rise Set
Actual Time
Civil Twilight
Nautical Twilight
Astronomical Twilight
Moon
Length of Visible Light
Length of Day
Tomorrow will be .
, % of the Moon is Illuminated

Today's Extremes

State Highs State Lows

Community

WunderPhotos

Upload Photos

1,962,540 photos uploaded!

WunderBlog® & News

Nearby

Air Quality

  Air Quality AQ Index Pollutant
Not available.

Snow Depth

Station Depth Elevation

Earthquake Activity

City Distance Mag. Time & Date
Minimum magnitude displayed is 2.5.

Earthquake Activity

City Distance Mag. Time & Date
Minimum magnitude displayed is 2.5.

Coastal Water Temperatures

Place Temperature

Stations

Nearby Weather Stations

Station Location Temp. Windchill Dew Point Humidity Wind Precip. Elev Updated Type
                   

Watches & Warnings

Winter Weather Advisory
Issued: 10:19 PM EDT Mar. 25, 2017 – National Weather Service

... Winter Weather Advisory remains in effect until 8 am EDT
Sunday...

A Winter Weather Advisory remains in effect until 8 am EDT
Sunday.

* Expect freezing rain to continue... diminishing around 8 am
Sunday.

* The greatest amount of ice accumulation will occur between 2
am and 8 am Sunday.

* Additional ice accumulations of 2/10 of an inch are expected.

* The ice will result in difficult travel conditions.

Precautionary/preparedness actions...